createdAt,value
2018-02-21T00:01:03.590Z,27.17
2018-02-21T00:03:31.183Z,27.37
2018-02-21T00:05:58.848Z,27.30
2018-02-21T00:08:26.543Z,25.95
2018-02-21T00:10:54.278Z,28.25
2018-02-21T00:13:21.847Z,26.40
2018-02-21T00:15:49.515Z,26.27
2018-02-21T00:18:17.070Z,29.58
2018-02-21T00:20:44.693Z,29.25
2018-02-21T00:23:13.029Z,27.50
2018-02-21T00:25:40.618Z,26.95
2018-02-21T00:28:08.986Z,29.10
2018-02-21T00:30:36.599Z,30.92
2018-02-21T00:33:04.406Z,27.15
2018-02-21T00:35:31.976Z,25.88
2018-02-21T00:38:00.347Z,29.67
2018-02-21T00:40:27.957Z,28.40
2018-02-21T00:42:55.554Z,27.73
2018-02-21T00:45:23.130Z,26.60
2018-02-21T00:47:51.508Z,28.27
2018-02-21T00:50:19.870Z,25.90
2018-02-21T00:52:47.438Z,26.77
2018-02-21T00:55:15.108Z,24.92
2018-02-21T00:57:43.434Z,28.85
2018-02-21T01:00:11.023Z,25.98
2018-02-21T01:02:38.554Z,26.25
2018-02-21T01:05:06.156Z,28.83
2018-02-21T01:07:34.493Z,30.05
2018-02-21T01:10:02.078Z,26.58
2018-02-21T01:12:29.673Z,29.77
2018-02-21T01:14:57.279Z,26.60
2018-02-21T01:17:24.886Z,27.52
2018-02-21T01:19:53.237Z,28.00
2018-02-21T01:22:20.836Z,26.90
2018-02-21T01:24:48.402Z,28.70
2018-02-21T01:27:16.132Z,27.70
2018-02-21T01:29:44.483Z,26.50
2018-02-21T01:32:12.159Z,29.20
2018-02-21T01:34:39.767Z,30.08
2018-02-21T01:37:07.371Z,29.77
2018-02-21T01:39:34.950Z,28.75
2018-02-21T01:42:03.278Z,28.27
2018-02-21T01:44:30.859Z,27.92
2018-02-21T01:46:58.438Z,29.48
2018-02-21T01:49:26.907Z,27.42
2018-02-21T01:51:54.466Z,29.30
2018-02-21T01:54:22.048Z,29.23
2018-02-21T01:56:50.500Z,30.37
2018-02-21T01:59:18.061Z,29.98
2018-02-21T02:01:45.638Z,29.83
2018-02-21T02:04:13.997Z,32.17
2018-02-21T02:06:41.574Z,30.60
2018-02-21T02:09:09.898Z,32.70
2018-02-21T02:11:37.502Z,32.70
2018-02-21T02:14:05.919Z,32.40
2018-02-21T02:16:33.740Z,34.95
2018-02-21T02:19:01.303Z,32.88
2018-02-21T02:21:29.635Z,35.40
2018-02-21T02:23:57.223Z,31.52
2018-02-21T02:26:24.897Z,34.80
2018-02-21T02:28:53.419Z,32.53
2018-02-21T02:31:21.015Z,35.15
2018-02-21T02:33:48.594Z,32.90
2018-02-21T02:36:17.119Z,32.83
2018-02-21T02:38:56.606Z,33.40
2018-02-21T02:41:24.206Z,33.75
2018-02-21T02:43:51.782Z,32.83
2018-02-21T02:46:19.342Z,33.50
2018-02-21T02:48:46.926Z,31.33
2018-02-21T02:51:14.508Z,33.55
2018-02-21T02:53:42.871Z,32.53
2018-02-21T02:56:10.439Z,31.95
2018-02-21T02:58:38.027Z,31.20
2018-02-21T03:01:05.599Z,31.37
2018-02-21T03:03:33.196Z,30.67
2018-02-21T03:06:00.778Z,31.15
2018-02-21T03:08:29.138Z,32.60
2018-02-21T03:10:56.705Z,31.85
2018-02-21T03:13:24.390Z,31.80
2018-02-21T03:15:51.979Z,30.55
2018-02-21T03:18:19.557Z,35.10
2018-02-21T03:20:47.155Z,34.85
2018-02-21T03:23:15.551Z,32.00
2018-02-21T03:25:43.185Z,36.10
2018-02-21T03:28:11.714Z,32.70
2018-02-21T03:30:39.432Z,33.53
2018-02-21T03:33:07.781Z,32.60
2018-02-21T03:35:35.348Z,33.70
2018-02-21T03:38:02.947Z,33.15
2018-02-21T03:40:30.506Z,30.95
2018-02-21T03:42:58.195Z,34.67
2018-02-21T03:45:25.750Z,35.05
2018-02-21T03:47:53.335Z,35.30
2018-02-21T03:50:20.986Z,33.63
2018-02-21T03:52:48.590Z,32.60
2018-02-21T03:55:16.924Z,33.67
2018-02-21T03:57:44.538Z,33.33
2018-02-21T04:00:12.122Z,32.78
2018-02-21T04:02:39.692Z,33.50
2018-02-21T04:05:07.306Z,31.83
2018-02-21T04:07:35.641Z,31.02
2018-02-21T04:10:03.221Z,32.70
2018-02-21T04:12:30.806Z,31.17
2018-02-21T04:14:58.363Z,32.72
2018-02-21T04:17:25.951Z,33.25
2018-02-21T04:19:53.511Z,34.10
2018-02-21T04:22:21.107Z,33.75
2018-02-21T04:24:48.683Z,33.75
2018-02-21T04:27:17.115Z,35.28
2018-02-21T04:29:44.816Z,34.53
2018-02-21T04:32:12.414Z,37.00
2018-02-21T04:34:40.035Z,32.60
2018-02-21T04:37:07.590Z,35.45
2018-02-21T04:39:35.227Z,34.58
2018-02-21T04:42:02.792Z,35.13
2018-02-21T04:44:30.383Z,33.60
2018-02-21T04:46:58.718Z,32.65
2018-02-21T04:49:26.314Z,33.30
2018-02-21T04:51:54.750Z,31.80
2018-02-21T04:54:22.876Z,33.22
2018-02-21T04:59:56.840Z,38.28
2018-02-21T05:02:24.434Z,35.88
2018-02-21T05:04:52.046Z,34.53
2018-02-21T05:07:19.637Z,33.65
2018-02-21T05:09:47.219Z,27.77
2018-02-21T05:12:14.839Z,29.70
2018-02-21T05:14:42.402Z,29.48
2018-02-21T05:17:10.023Z,31.02
2018-02-21T05:19:37.586Z,29.02
2018-02-21T05:22:05.254Z,29.98
2018-02-21T05:24:32.935Z,32.63
2018-02-21T05:27:00.603Z,30.58
2018-02-21T05:29:28.200Z,29.85
2018-02-21T05:31:56.534Z,29.70
2018-02-21T05:34:24.272Z,28.83
2018-02-21T05:36:51.838Z,29.50
2018-02-21T05:39:19.425Z,29.67
2018-02-21T05:41:47.116Z,28.50
2018-02-21T05:44:14.742Z,30.85
2018-02-21T05:46:42.335Z,29.25
2018-02-21T05:49:10.655Z,30.02
2018-02-21T05:51:38.254Z,31.42
2018-02-21T05:54:05.863Z,30.48
2018-02-21T05:56:33.528Z,28.80
2018-02-21T05:59:01.154Z,29.60
2018-02-21T06:01:29.718Z,28.90
2018-02-21T06:03:57.307Z,25.05
2018-02-21T06:06:24.887Z,28.08
2018-02-21T06:08:52.478Z,28.33
2018-02-21T06:11:20.027Z,31.17
2018-02-21T06:13:47.628Z,29.95
2018-02-21T06:16:15.951Z,29.77
2018-02-21T06:18:43.519Z,32.15
2018-02-21T06:21:11.121Z,32.85
2018-02-21T06:23:39.605Z,34.03
2018-02-21T06:26:08.122Z,33.15
2018-02-21T06:28:35.694Z,35.50
2018-02-21T06:31:03.286Z,32.75
2018-02-21T06:33:30.851Z,35.65
2018-02-21T06:35:58.479Z,32.33
2018-02-21T06:38:26.046Z,35.25
2018-02-21T06:40:53.707Z,33.10
2018-02-21T06:43:21.339Z,36.83
2018-02-21T06:45:48.942Z,36.58
2018-02-21T06:48:16.555Z,34.95
2018-02-21T06:50:44.294Z,36.70
2018-02-21T06:53:11.930Z,38.28
2018-02-21T06:55:39.490Z,33.45
2018-02-21T06:58:07.298Z,36.50
2018-02-21T07:00:34.814Z,32.90
2018-02-21T07:03:02.379Z,38.47
2018-02-21T07:05:30.738Z,38.35
2018-02-21T07:07:58.405Z,37.00
2018-02-21T07:10:25.985Z,39.35
2018-02-21T07:12:54.327Z,42.03
2018-02-21T07:15:21.975Z,43.95
2018-02-21T07:17:49.518Z,39.20
2018-02-21T07:20:17.142Z,39.17
2018-02-21T07:22:44.706Z,45.95
2018-02-21T07:25:12.270Z,39.90
2018-02-21T07:27:39.864Z,43.13
2018-02-21T07:30:07.433Z,44.70
2018-02-21T07:32:34.996Z,48.33
2018-02-21T07:35:02.595Z,45.00
2018-02-21T07:37:30.192Z,44.58
2018-02-21T07:39:57.902Z,44.58
2018-02-21T07:42:26.231Z,45.60
2018-02-21T07:44:53.819Z,44.80
2018-02-21T07:47:21.386Z,44.67
2018-02-21T07:49:48.986Z,50.72
2018-02-21T07:52:16.617Z,50.00
2018-02-21T07:54:44.942Z,41.70
2018-02-21T07:57:12.559Z,52.33
2018-02-21T07:59:40.986Z,46.97
2018-02-21T08:02:08.580Z,46.45
2018-02-21T08:04:36.146Z,42.20
2018-02-21T08:07:04.561Z,44.97
2018-02-21T08:09:32.128Z,43.00
2018-02-21T08:11:59.734Z,42.95
2018-02-21T08:14:28.075Z,43.95
2018-02-21T08:16:55.643Z,44.22
2018-02-21T08:19:23.233Z,47.50
2018-02-21T08:21:51.572Z,43.95
2018-02-21T08:24:19.262Z,44.25
2018-02-21T08:26:46.855Z,39.53
2018-02-21T08:29:14.581Z,48.08
2018-02-21T08:31:42.226Z,40.25
2018-02-21T08:34:09.887Z,46.22
2018-02-21T08:36:37.643Z,41.03
2018-02-21T08:39:05.166Z,46.20
2018-02-21T08:41:32.780Z,44.55
2018-02-21T08:44:00.346Z,43.08
2018-02-21T08:46:28.089Z,45.53
2018-02-21T08:48:55.662Z,38.97
2018-02-21T08:51:23.998Z,41.60
2018-02-21T08:53:51.634Z,39.75
2018-02-21T08:56:19.191Z,40.15
2018-02-21T08:58:46.780Z,40.05
2018-02-21T09:01:14.342Z,40.95
2018-02-21T09:03:41.963Z,36.00
2018-02-21T09:06:09.523Z,40.53
2018-02-21T09:08:37.114Z,40.58
2018-02-21T09:11:04.710Z,41.08
2018-02-21T09:13:32.294Z,37.20
2018-02-21T09:15:59.858Z,40.47
2018-02-21T09:18:27.414Z,40.03
2018-02-21T09:20:55.029Z,41.08
2018-02-21T09:23:23.491Z,38.00
2018-02-21T09:25:51.079Z,36.72
2018-02-21T09:28:18.643Z,38.58
2018-02-21T09:30:46.251Z,39.85
2018-02-21T09:33:13.843Z,36.35
2018-02-21T09:35:41.402Z,42.58
2018-02-21T09:38:08.983Z,39.67
2018-02-21T09:40:37.414Z,38.40
2018-02-21T09:43:05.008Z,40.15
2018-02-21T09:45:32.588Z,39.75
2018-02-21T09:48:00.936Z,37.70
2018-02-21T09:50:28.544Z,35.63
2018-02-21T09:52:56.103Z,36.55
2018-02-21T09:55:23.706Z,35.50
2018-02-21T09:57:51.274Z,39.85
2018-02-21T10:00:18.881Z,39.67
2018-02-21T10:02:46.450Z,39.25
2018-02-21T10:05:13.999Z,39.30
2018-02-21T10:07:41.599Z,34.13
2018-02-21T10:10:09.191Z,40.22
2018-02-21T10:12:37.558Z,41.65
2018-02-21T10:15:05.896Z,44.45
2018-02-21T10:17:33.647Z,39.00
2018-02-21T10:20:01.217Z,37.88
2018-02-21T10:22:28.951Z,38.17
2018-02-21T10:24:56.551Z,41.22
2018-02-21T10:27:24.334Z,40.30
2018-02-21T10:29:52.674Z,40.90
2018-02-21T10:32:20.270Z,45.90
2018-02-21T10:34:47.850Z,45.20
2018-02-21T10:37:16.179Z,43.10
2018-02-21T10:39:43.767Z,45.95
2018-02-21T10:42:12.148Z,45.78
2018-02-21T10:44:39.723Z,43.87
2018-02-21T10:47:08.287Z,45.10
2018-02-21T10:49:35.880Z,41.42
2018-02-21T10:52:03.434Z,41.97
2018-02-21T10:54:31.035Z,40.00
2018-02-21T10:56:58.794Z,42.72
2018-02-21T10:59:26.355Z,42.70
2018-02-21T11:01:54.091Z,43.70
2018-02-21T11:04:21.722Z,42.60
2018-02-21T11:06:50.238Z,45.60
2018-02-21T11:09:17.802Z,43.38
2018-02-21T11:11:45.391Z,37.33
2018-02-21T11:14:12.961Z,40.22
2018-02-21T11:16:40.554Z,41.05
2018-02-21T11:19:08.274Z,40.97
2018-02-21T11:21:35.851Z,44.78
2018-02-21T11:24:04.222Z,44.00
2018-02-21T11:26:32.563Z,44.03
2018-02-21T11:29:00.302Z,46.88
2018-02-21T11:31:27.978Z,40.58
2018-02-21T11:33:55.550Z,44.15
2018-02-21T11:36:23.174Z,44.78
2018-02-21T11:38:50.749Z,43.60
2018-02-21T11:41:18.370Z,43.22
2018-02-21T11:43:46.709Z,42.50
2018-02-21T11:46:14.343Z,46.63
2018-02-21T11:48:41.963Z,43.38
2018-02-21T11:51:10.326Z,42.80
2018-02-21T11:53:38.154Z,40.97
2018-02-21T11:56:05.715Z,39.50
2018-02-21T11:58:33.408Z,42.08
2018-02-21T12:01:01.776Z,41.47
2018-02-21T12:03:29.430Z,42.50
2018-02-21T12:05:57.767Z,38.63
2018-02-21T12:08:25.331Z,42.58
2018-02-21T12:10:52.936Z,43.30
2018-02-21T12:13:20.608Z,42.75
2018-02-21T12:15:49.003Z,41.10
2018-02-21T12:18:16.602Z,40.08
2018-02-21T12:20:44.214Z,40.60
2018-02-21T12:23:12.671Z,41.90
2018-02-21T12:25:40.311Z,36.22
2018-02-21T12:28:07.877Z,36.70
2018-02-21T12:30:35.447Z,32.63
2018-02-21T12:33:03.047Z,33.15
2018-02-21T12:35:30.621Z,33.60
2018-02-21T12:37:58.223Z,37.67
2018-02-21T12:40:31.545Z,37.45
2018-02-21T12:42:59.941Z,34.05
2018-02-21T12:45:27.671Z,35.95
2018-02-21T12:47:56.011Z,35.00
2018-02-21T12:50:23.609Z,37.78
2018-02-21T12:52:51.959Z,33.40
2018-02-21T12:55:19.558Z,32.83
2018-02-21T12:57:47.227Z,37.65
2018-02-21T13:00:14.821Z,33.17
2018-02-21T13:02:42.394Z,34.80
2018-02-21T13:05:09.958Z,32.00
2018-02-21T13:07:37.566Z,35.53
2018-02-21T13:10:05.121Z,32.97
2018-02-21T13:12:32.711Z,33.57
2018-02-21T13:15:00.270Z,32.80
2018-02-21T13:17:27.882Z,29.00
2018-02-21T13:19:56.404Z,35.37
2018-02-21T13:22:23.984Z,34.15
2018-02-21T13:24:51.578Z,34.97
2018-02-21T13:27:19.926Z,33.92
2018-02-21T13:29:47.524Z,35.90
2018-02-21T13:32:15.085Z,32.72
2018-02-21T13:34:42.676Z,34.38
2018-02-21T13:37:10.238Z,31.50
2018-02-21T13:39:37.808Z,31.12
2018-02-21T13:42:05.387Z,30.47
2018-02-21T13:44:32.970Z,31.70
2018-02-21T13:47:01.344Z,32.33
2018-02-21T13:49:29.689Z,33.00
2018-02-21T13:51:57.301Z,32.87
2018-02-21T13:54:25.004Z,32.93
2018-02-21T13:56:52.598Z,31.00
2018-02-21T13:59:20.964Z,38.47
2018-02-21T14:01:49.299Z,36.88
2018-02-21T14:04:16.942Z,35.67
2018-02-21T14:06:44.576Z,34.55
2018-02-21T14:09:12.130Z,32.85
2018-02-21T14:11:39.787Z,32.73
2018-02-21T14:14:08.211Z,34.40
2018-02-21T14:16:36.015Z,32.08
2018-02-21T14:19:04.406Z,32.07
2018-02-21T14:21:32.022Z,34.50
2018-02-21T14:23:59.590Z,34.93
2018-02-21T14:26:27.157Z,33.40
2018-02-21T14:28:54.743Z,31.67
2018-02-21T14:31:22.310Z,30.73
2018-02-21T14:33:50.699Z,32.63
2018-02-21T14:36:18.262Z,31.57
2018-02-21T14:38:45.858Z,32.03
2018-02-21T14:41:13.434Z,29.63
2018-02-21T14:43:41.023Z,32.03
2018-02-21T14:46:09.351Z,34.67
2018-02-21T14:48:36.943Z,30.80
2018-02-21T14:51:06.202Z,29.80
2018-02-21T14:53:33.823Z,32.10
2018-02-21T14:56:01.399Z,33.37
2018-02-21T14:58:28.987Z,35.43
2018-02-21T15:00:56.575Z,30.10
2018-02-21T15:03:24.168Z,33.95
2018-02-21T15:05:51.808Z,31.35
2018-02-21T15:08:19.374Z,30.23
2018-02-21T15:10:47.850Z,29.58
2018-02-21T15:13:16.189Z,30.70
2018-02-21T15:15:43.821Z,31.47
2018-02-21T15:18:11.426Z,30.97
2018-02-21T15:20:39.929Z,31.60
2018-02-21T15:23:08.470Z,30.77
2018-02-21T15:25:36.044Z,28.80
2018-02-21T15:28:04.562Z,30.62
2018-02-21T15:30:32.148Z,32.60
2018-02-21T15:32:59.735Z,30.23
2018-02-21T15:35:27.314Z,32.20
2018-02-21T15:37:55.686Z,31.15
2018-02-21T15:40:24.032Z,30.17
2018-02-21T15:42:51.602Z,32.00
2018-02-21T15:45:19.239Z,30.12
2018-02-21T15:47:46.826Z,31.52
2018-02-21T15:50:14.643Z,27.05
2018-02-21T15:52:42.334Z,29.52
2018-02-21T15:55:09.952Z,30.35
2018-02-21T15:57:37.543Z,32.67
2018-02-21T16:00:05.131Z,33.53
2018-02-21T16:02:32.748Z,29.73
2018-02-21T16:05:00.336Z,31.02
2018-02-21T16:07:27.931Z,29.65
2018-02-21T16:09:56.287Z,30.70
2018-02-21T16:12:23.886Z,29.20
2018-02-21T16:14:51.469Z,30.65
2018-02-21T16:17:19.123Z,32.33
2018-02-21T16:19:46.682Z,30.55
2018-02-21T16:22:14.262Z,30.55
2018-02-21T16:24:41.854Z,30.73
2018-02-21T16:27:09.482Z,30.45
2018-02-21T16:29:37.076Z,32.30
2018-02-21T16:32:05.418Z,31.75
2018-02-21T16:34:33.018Z,29.23
2018-02-21T16:37:01.352Z,29.12
2018-02-21T16:39:29.099Z,28.65
2018-02-21T16:41:56.715Z,29.50
2018-02-21T16:44:25.075Z,31.23
2018-02-21T16:46:52.668Z,29.58
2018-02-21T16:49:20.237Z,29.95
2018-02-21T16:51:47.842Z,31.65
2018-02-21T16:54:32.098Z,28.60
2018-02-21T16:56:59.679Z,31.08
2018-02-21T16:59:28.064Z,28.70
2018-02-21T17:02:01.363Z,31.67
2018-02-21T17:04:28.967Z,32.22
2018-02-21T17:06:56.546Z,29.27
2018-02-21T17:09:24.168Z,29.12
2018-02-21T17:11:51.733Z,31.80
2018-02-21T17:14:19.376Z,28.87
2018-02-21T17:16:46.941Z,28.90
2018-02-21T17:19:14.664Z,28.30
2018-02-21T17:21:43.007Z,28.92
2018-02-21T17:24:10.719Z,26.77
2018-02-21T17:26:38.320Z,28.83
2018-02-21T17:29:05.886Z,28.50
2018-02-21T17:31:33.490Z,27.23
2018-02-21T17:34:01.822Z,29.90
2018-02-21T17:36:29.383Z,28.17
2018-02-21T17:38:57.000Z,28.60
2018-02-21T17:41:30.096Z,29.50
2018-02-21T17:43:57.678Z,27.17
2018-02-21T17:46:25.263Z,27.25
2018-02-21T17:48:52.871Z,26.08
2018-02-21T17:51:20.647Z,27.73
2018-02-21T17:53:48.331Z,27.65
2018-02-21T17:56:16.014Z,28.52
2018-02-21T17:58:43.584Z,25.73
2018-02-21T18:01:11.951Z,27.92
2018-02-21T18:03:39.507Z,28.02
2018-02-21T18:06:07.275Z,29.02
2018-02-21T18:08:35.696Z,28.60
2018-02-21T18:11:03.295Z,28.50
2018-02-21T18:13:30.903Z,30.27
2018-02-21T18:15:58.476Z,30.08
2018-02-21T18:18:26.075Z,27.48
2018-02-21T18:20:53.702Z,30.77
2018-02-21T18:23:21.294Z,28.27
2018-02-21T18:25:48.883Z,30.33
2018-02-21T18:28:17.383Z,28.95
2018-02-21T18:30:45.231Z,27.95
2018-02-21T18:33:13.599Z,25.55
2018-02-21T18:35:41.926Z,24.77
2018-02-21T18:38:09.519Z,24.60
2018-02-21T18:40:37.120Z,25.17
2018-02-21T18:43:04.724Z,22.80
2018-02-21T18:45:32.339Z,22.87
2018-02-21T18:47:59.936Z,22.75
2018-02-21T18:50:27.507Z,23.23
2018-02-21T18:52:55.114Z,23.75
2018-02-21T18:55:22.690Z,25.20
2018-02-21T18:57:50.282Z,24.67
2018-02-21T19:00:17.850Z,23.17
2018-02-21T19:02:45.463Z,25.05
2018-02-21T19:05:13.032Z,33.72
2018-02-21T19:07:40.602Z,29.67
2018-02-21T19:10:08.231Z,25.00
2018-02-21T19:12:35.863Z,28.62
2018-02-21T19:15:04.198Z,26.10
2018-02-21T19:17:31.776Z,25.48
2018-02-21T19:19:59.385Z,22.33
2018-02-21T19:22:26.950Z,22.30
2018-02-21T19:24:54.564Z,21.73
2018-02-21T19:27:22.135Z,21.83
2018-02-21T19:29:51.476Z,22.67
2018-02-21T19:32:19.078Z,22.73
2018-02-21T19:34:46.848Z,22.62
2018-02-21T19:37:15.281Z,22.50
2018-02-21T19:39:42.847Z,20.83
2018-02-21T19:42:10.456Z,21.05
2018-02-21T19:44:38.851Z,19.58
2018-02-21T19:47:06.480Z,20.92
2018-02-21T19:49:34.150Z,20.62
2018-02-21T19:52:02.695Z,20.77
2018-02-21T19:54:30.295Z,21.48
2018-02-21T19:56:58.694Z,21.37
2018-02-21T19:59:26.260Z,21.62
2018-02-21T20:01:53.832Z,21.37
2018-02-21T20:04:21.435Z,21.42
2018-02-21T20:06:49.767Z,22.08
2018-02-21T20:09:17.375Z,20.35
2018-02-21T20:11:45.740Z,21.58
2018-02-21T20:14:13.336Z,23.65
2018-02-21T20:16:40.947Z,21.48
2018-02-21T20:19:08.530Z,22.52
2018-02-21T20:21:36.100Z,23.05
2018-02-21T20:24:04.437Z,23.55
2018-02-21T20:26:32.076Z,23.08
2018-02-21T20:28:59.642Z,22.77
2018-02-21T20:31:27.226Z,22.02
2018-02-21T20:33:54.841Z,23.62
2018-02-21T20:36:22.796Z,22.20
2018-02-21T20:38:50.387Z,23.05
2018-02-21T20:41:17.988Z,22.30
2018-02-21T20:43:46.334Z,23.98
2018-02-21T20:46:14.038Z,23.15
2018-02-21T20:48:42.411Z,21.92
2018-02-21T20:51:10.763Z,22.85
2018-02-21T20:53:38.355Z,21.95
2018-02-21T20:56:06.710Z,22.37
2018-02-21T20:58:34.313Z,22.55
2018-02-21T21:01:01.878Z,23.05
2018-02-21T21:03:29.467Z,24.30
2018-02-21T21:05:57.039Z,23.92
2018-02-21T21:08:24.664Z,24.25
2018-02-21T21:10:52.236Z,23.62
2018-02-21T21:13:19.794Z,25.05
2018-02-21T21:15:47.636Z,22.25
2018-02-21T21:18:15.210Z,23.48
2018-02-21T21:20:42.802Z,23.95
2018-02-21T21:23:10.380Z,23.85
2018-02-21T21:25:38.800Z,23.45
2018-02-21T21:28:06.416Z,23.67
2018-02-21T21:30:34.016Z,25.98
2018-02-21T21:33:01.587Z,24.20
2018-02-21T21:35:29.287Z,23.80
2018-02-21T21:37:56.918Z,22.02
2018-02-21T21:40:24.514Z,23.62
2018-02-21T21:42:52.943Z,24.30
2018-02-21T21:45:20.531Z,24.77
2018-02-21T21:47:48.163Z,23.33
2018-02-21T21:50:15.839Z,24.00
2018-02-21T21:52:43.491Z,24.15
2018-02-21T21:55:11.211Z,24.25
2018-02-21T21:57:38.798Z,23.58
2018-02-21T22:00:06.407Z,24.20
2018-02-21T22:02:33.986Z,23.17
2018-02-21T22:05:01.617Z,24.80
2018-02-21T22:07:29.186Z,25.17
2018-02-21T22:09:57.577Z,24.15
2018-02-21T22:12:25.930Z,24.67
2018-02-21T22:14:53.495Z,25.10
2018-02-21T22:17:22.342Z,25.88
2018-02-21T22:19:50.007Z,24.33
2018-02-21T22:22:17.606Z,25.45
2018-02-21T22:24:45.960Z,23.83
2018-02-21T22:27:13.638Z,24.17
2018-02-21T22:29:41.235Z,24.70
2018-02-21T22:32:08.836Z,26.37
2018-02-21T22:34:36.462Z,25.48
2018-02-21T22:37:04.034Z,22.90
2018-02-21T22:39:31.646Z,25.20
2018-02-21T22:41:59.991Z,26.90
2018-02-21T22:44:27.674Z,26.48
2018-02-21T22:46:55.273Z,23.30
2018-02-21T22:49:22.896Z,25.20
2018-02-21T22:51:50.587Z,24.95
2018-02-21T22:54:18.154Z,23.77
2018-02-21T22:56:45.754Z,24.83
2018-02-21T22:59:13.351Z,26.60
2018-02-21T23:01:41.782Z,24.02
2018-02-21T23:04:09.346Z,25.52
2018-02-21T23:06:36.939Z,26.48
2018-02-21T23:09:05.310Z,23.45
2018-02-21T23:11:33.713Z,23.40
2018-02-21T23:14:01.301Z,24.92
2018-02-21T23:16:28.878Z,25.45
2018-02-21T23:18:56.538Z,25.12
2018-02-21T23:21:24.270Z,25.70
2018-02-21T23:23:51.898Z,28.48
2018-02-21T23:26:20.343Z,25.98
2018-02-21T23:28:47.967Z,24.85
2018-02-21T23:31:15.543Z,27.42
2018-02-21T23:33:43.148Z,27.30
2018-02-21T23:36:11.511Z,25.25
2018-02-21T23:38:39.070Z,25.25
2018-02-21T23:41:06.664Z,26.15
2018-02-21T23:43:34.484Z,29.23
2018-02-21T23:46:02.070Z,26.10
2018-02-21T23:48:30.444Z,27.90
2018-02-21T23:50:58.840Z,26.37
2018-02-21T23:53:26.418Z,26.83
2018-02-21T23:55:53.995Z,26.90
2018-02-21T23:58:21.679Z,24.42
